Seaspan Champion — VDPS — position and weather

sailwx.info

Track history (hours):
 
Tides and Currents Weather Stations Pressure Air Temp Water Temp Dewpoint Dewpoint Depression Visibility Wind Speed Wind Dir Waves Ship Positions

Seaspan Champion

Last reported at 2016-May-27 01:33 UTC. Time now 2016-May-28 09:58 UTC.
Position N 49°19' W 123°06'.

Length 24 m; draft 5 m.

Type: Towing. MMSI: 316003661.

Date/timePositionNaut miles runAvg speedWind from/ knotsBaromVisibWave heightAir tempDewpointWater temp
2016-May-27 01:33N 49°19' W 123°06'0 0.0
2016-May-27 00:34N 49°19' W 123°06'1 1.1
2016-May-26 23:33N 49°18' W 123°07'0 0.0
2016-May-26 22:34N 49°18' W 123°07'0 0.0
2016-May-26 21:33N 49°18' W 123°07'0 0.0
2016-May-26 20:33N 49°18' W 123°07'1 1.0
2016-May-26 19:34N 49°19' W 123°08'6 6.2
2016-May-26 18:34N 49°15' W 123°15'2 2.3
2016-May-26 17:33N 49°14' W 123°18'7 6.8
2016-May-26 16:34N 49°07' W 123°19'7 7.1
2016-May-26 15:34N 49°06' W 123°08'8 7.9
2016-May-26 14:34N 49°09' W 122°57'0 0.4
2016-May-26 13:33N 49°09' W 122°58'3 3.2
2016-May-26 12:34N 49°09' W 123°03'5 5.4
2016-May-26 11:34N 49°07' W 123°10'4 4.3
2016-May-26 10:34N 49°07' W 123°17'3 3.5
2016-May-26 09:33N 49°08' W 123°22'6 5.7
2016-May-26 08:33N 49°13' W 123°21'3 3.4
2016-May-26 07:34N 49°17' W 123°21'4 4.3
2016-May-26 06:33N 49°18' W 123°27'5 5.0
2016-May-26 05:33N 49°20' W 123°35'6 6.3
2016-May-26 04:34N 49°23' W 123°43'6 6.4
2016-May-26 03:33N 49°26' W 123°52'6 6.0
2016-May-26 02:33N 49°29' W 124°00'7 6.4
2016-May-26 01:31N 49°33' W 124°07'6 6.3
2016-May-26 00:33N 49°38' W 124°14'7 7.0
2016-May-25 23:34N 49°43' W 124°21'7 7.0
2016-May-25 22:34N 49°47' W 124°30'5 5.4
2016-May-25 21:34N 49°52' W 124°34'0 0.1
2016-May-25 20:33N 49°52' W 124°34'2 2.3
2016-May-25 19:33N 49°50' W 124°33'2 2.3
2016-May-25 18:33N 49°47' W 124°32'4 4.5
2016-May-25 17:33N 49°45' W 124°26'4 4.4
2016-May-25 16:33N 49°43' W 124°20'5 4.6
2016-May-25 15:33N 49°39' W 124°15'6 4.6
2016-May-25 14:19N 49°35' W 124°09'4 4.6
2016-May-25 13:33N 49°32' W 124°06'6 4.6
2016-May-25 12:16N 49°28' W 123°60'13 4.9
2016-May-25 09:33N 49°22' W 123°41'5 4.9
2016-May-25 08:34N 49°20' W 123°34'5 4.9
2016-May-25 07:34N 49°18' W 123°27'5 4.9
2016-May-25 06:33N 49°16' W 123°20'3 2.9
2016-May-25 05:34N 49°14' W 123°18'5 4.8
2016-May-25 04:34N 49°09' W 123°19'3 2.8
2016-May-25 03:33N 49°07' W 123°16'5 4.9
2016-May-25 02:34N 49°06' W 123°08'6 5.8
2016-May-25 01:33N 49°09' W 123°01'2 2.0
2016-May-25 00:33N 49°09' W 122°58'2 1.6
2016-May-24 23:33N 49°10' W 122°55'0 0.0
2016-May-24 22:34N 49°10' W 122°55'0 0.0
2016-May-24 21:33N 49°10' W 122°55'0 0.0
2016-May-24 20:33N 49°10' W 122°55'0 0.0
2016-May-24 19:34N 49°10' W 122°55'0 0.0
2016-May-24 18:34N 49°10' W 122°55'0 0.0
2016-May-24 17:33N 49°10' W 122°55'0 0.0
2016-May-24 16:33N 49°10' W 122°55'0 0.0
2016-May-24 15:33N 49°10' W 122°55'0 0.0
2016-May-24 14:33N 49°10' W 122°55'2 1.9
2016-May-24 13:34N 49°09' W 122°58'4 3.7
2016-May-24 12:33N 49°08' W 123°03'5 4.9
2016-May-24 11:34N 49°07' W 123°11'5 4.9
2016-May-24 10:34N 49°06' W 123°18'3 3.4
2016-May-24 09:33N 49°07' W 123°23'3 3.4
2016-May-24 08:33N 49°11' W 123°23'3 3.1
2016-May-24 07:33N 49°14' W 123°22'3 3.0
2016-May-24 06:33N 49°16' W 123°18'4 4.2
2016-May-24 05:34N 49°17' W 123°24'6 6.4
2016-May-24 04:34N 49°20' W 123°33'7 6.5
2016-May-24 03:29N 49°23' W 123°43'13 5.9
2016-May-24 01:15N 49°29' W 124°01'5 5.8
2016-May-24 00:26N 49°32' W 124°06'12 6.1
2016-May-23 22:32N 49°41' W 124°17'7 6.9
2016-May-23 21:33N 49°45' W 124°25'7 6.9
2016-May-23 20:33N 49°50' W 124°33'2 2.1
2016-May-23 19:33N 49°52' W 124°34'3 2.6
2016-May-23 18:33N 49°49' W 124°33'5 4.6
2016-May-23 17:33N 49°46' W 124°28'5 4.8
2016-May-23 16:33N 49°44' W 124°22'5 5.0
2016-May-23 15:33N 49°40' W 124°16'5 5.4
2016-May-23 14:32N 49°36' W 124°11'5 4.9
2016-May-23 13:28N 49°32' W 124°06'5 5.1
2016-May-23 12:31N 49°28' W 124°01'5 4.7
2016-May-23 11:32N 49°26' W 123°55'5 5.2
2016-May-23 10:29N 49°23' W 123°47'6 5.2
2016-May-23 09:23N 49°21' W 123°39'4 5.3
2016-May-23 08:34N 49°19' W 123°33'5 5.4
2016-May-23 07:34N 49°17' W 123°26'5 5.0
2016-May-23 06:33N 49°15' W 123°18'5 4.5
2016-May-23 05:34N 49°11' W 123°19'5 4.8
2016-May-23 04:33N 49°06' W 123°18'5 5.0
2016-May-23 03:34N 49°07' W 123°10'5 5.3
2016-May-23 02:34N 49°09' W 123°03'4 3.9
2016-May-23 01:34N 49°09' W 122°57'0 0.2
2016-May-23 00:34N 49°09' W 122°57'2 1.7
2016-May-22 23:33N 49°09' W 122°60'6 6.1
2016-May-22 22:33N 49°06' W 123°08'5 5.4
2016-May-22 21:33N 49°07' W 123°16'5 4.6
2016-May-22 20:34N 49°10' W 123°22'6 6.0
2016-May-22 19:33N 49°16' W 123°23'7 7.1
2016-May-22 18:33N 49°15' W 123°34'8 7.6
2016-May-22 17:33N 49°14' W 123°46'6 6.2
2016-May-22 16:33N 49°10' W 123°52'1 1.2
2016-May-22 15:33N 49°09' W 123°51'1 0.9
2016-May-22 14:33N 49°09' W 123°52'0 0.2
2016-May-22 13:33N 49°09' W 123°52'2 1.9
2016-May-22 12:33N 49°11' W 123°53'3 2.7
2016-May-22 11:33N 49°13' W 123°51'2 2.3
2016-May-22 10:32N 49°15' W 123°48'2 1.9
2016-May-22 09:33N 49°16' W 123°46'2 2.0
2016-May-22 08:33N 49°16' W 123°43'3 2.7
2016-May-22 07:33N 49°16' W 123°39'3 2.8
2016-May-22 06:33N 49°15' W 123°34'3 2.5
2016-May-22 05:33N 49°15' W 123°30'2 2.4
2016-May-22 04:33N 49°16' W 123°27'2 2.1
2016-May-22 03:33N 49°16' W 123°24'2 1.7
2016-May-22 02:33N 49°16' W 123°21'2 1.8
2016-May-22 01:34N 49°16' W 123°18'4 4.0
2016-May-22 00:33N 49°12' W 123°18'6 5.7
2016-May-21 23:33N 49°06' W 123°19'6 5.7
2016-May-21 22:33N 49°07' W 123°10'7 7.2
2016-May-21 21:33N 49°09' W 122°60'1 1.3
2016-May-21 20:33N 49°09' W 122°58'0 0.0
2016-May-21 19:33N 49°09' W 122°58'0 0.0
2016-May-21 18:33N 49°09' W 122°58'2 1.7
2016-May-21 17:33N 49°10' W 122°55'0 0.0
2016-May-21 16:33N 49°10' W 122°55'0 0.0
2016-May-21 15:33N 49°10' W 122°55'0 0.0
2016-May-21 14:33N 49°10' W 122°55'0 0.0
2016-May-21 13:33N 49°10' W 122°55'0 0.0
2016-May-21 12:33N 49°10' W 122°55'0 0.0
2016-May-21 11:33N 49°10' W 122°55'0 0.0
2016-May-21 10:33N 49°10' W 122°55'0 0.0
2016-May-21 09:34N 49°10' W 122°55'0 0.0
2016-May-21 08:33N 49°10' W 122°55'0 0.0
2016-May-21 07:33N 49°10' W 122°55'0 0.0
2016-May-21 06:33N 49°10' W 122°55'0 0.0
2016-May-21 05:33N 49°10' W 122°55'0 0.0
2016-May-21 04:33N 49°10' W 122°55'0 0.0
2016-May-21 03:33N 49°10' W 122°55'0 0.0
2016-May-21 02:33N 49°10' W 122°55'0 0.0
2016-May-21 01:33N 49°10' W 122°55'0 0.0
2016-May-21 00:33N 49°10' W 122°55'2 1.8
2016-May-20 23:33N 49°10' W 122°58'5 4.7
2016-May-20 22:33N 49°07' W 123°04'7 6.6
2016-May-20 21:34N 49°08' W 123°14'4 3.8
2016-May-20 20:33N 49°10' W 123°19'7 7.2
2016-May-20 19:33N 49°17' W 123°18'8 7.8
2016-May-20 18:33N 49°25' W 123°18'7 6.6
2016-May-20 17:32N 49°27' W 123°28'4 4.0
2016-May-20 16:33N 49°31' W 123°29'0 0.0
2016-May-20 15:33N 49°31' W 123°29'3 3.0
2016-May-20 14:33N 49°28' W 123°28'4 4.1
2016-May-20 13:33N 49°24' W 123°26'4 4.3
2016-May-20 12:33N 49°20' W 123°27'5 4.8
2016-May-20 11:33N 49°17' W 123°21'4 3.7
2016-May-20 10:33N 49°14' W 123°18'5 5.2
2016-May-20 09:33N 49°09' W 123°18'2 2.4
2016-May-20 08:33N 49°08' W 123°15'7 6.8
2016-May-20 07:33N 49°07' W 123°05'5 5.3
2016-May-20 06:33N 49°09' W 122°57'2 2.2
2016-May-20 05:33N 49°09' W 123°01'4 4.2
2016-May-20 04:33N 49°07' W 123°06'4 3.8
2016-May-20 03:33N 49°07' W 123°12'4 4.3
2016-May-20 02:33N 49°06' W 123°18'6 5.9
2016-May-20 01:33N 49°04' W 123°27'6 6.0
2016-May-20 00:34N 49°01' W 123°35'5 5.4
2016-May-19 23:33N 48°56' W 123°37'4 3.9
2016-May-19 22:33N 48°52' W 123°39'0 0.0
2016-May-19 21:32N 48°52' W 123°39'0 0.0
2016-May-19 20:32N 48°52' W 123°39'0 0.0
2016-May-19 19:33N 48°52' W 123°39'2 1.6
2016-May-19 18:33N 48°53' W 123°37'7 6.9
2016-May-19 17:33N 49°00' W 123°36'6 6.1
2016-May-19 16:33N 49°04' W 123°28'7 7.3
2016-May-19 15:33N 49°06' W 123°18'9 9.0
2016-May-19 14:33N 49°08' W 123°04'5 5.0
2016-May-19 13:33N 49°09' W 122°57'1 1.2
2016-May-19 12:33N 49°10' W 122°55'0 0.0
2016-May-19 11:33N 49°10' W 122°55'0 0.0
2016-May-19 10:33N 49°10' W 122°55'0 0.0
2016-May-19 09:33N 49°10' W 122°55'0 0.0
2016-May-19 08:33N 49°10' W 122°55'0 0.0
2016-May-19 07:33N 49°10' W 122°55'0 0.1
2016-May-19 06:33N 49°10' W 122°56'3 3.2
2016-May-19 05:33N 49°09' W 123°00'1 1.4
2016-May-19 04:33N 49°09' W 123°02'5 5.4
2016-May-19 03:33N 49°07' W 123°10'5 5.2
2016-May-19 02:33N 49°06' W 123°18'7 7.3
2016-May-19 01:33N 49°10' W 123°27'8 7.9
2016-May-19 00:33N 49°15' W 123°37'8 7.9
2016-May-18 23:33N 49°20' W 123°46'8 7.6
2016-May-18 22:33N 49°25' W 123°55'7 7.5
2016-May-18 21:33N 49°30' W 124°03'7 7.4
2016-May-18 20:33N 49°36' W 124°11'8 7.6
2016-May-18 19:33N 49°41' W 124°19'8 7.5
2016-May-18 18:33N 49°46' W 124°28'7 7.0
2016-May-18 17:33N 49°52' W 124°34'0 0.3
2016-May-18 16:33N 49°52' W 124°34'5 4.6
2016-May-18 15:33N 49°47' W 124°32'6 5.6
2016-May-18 14:33N 49°44' W 124°24'6 5.6
2016-May-18 13:33N 49°41' W 124°17'6 5.6
2016-May-18 12:33N 49°37' W 124°12'5 5.4
2016-May-18 11:33N 49°32' W 124°07'5 5.3
2016-May-18 10:33N 49°28' W 124°02'5 5.5
2016-May-18 09:33N 49°24' W 123°56'6 5.6
2016-May-18 08:33N 49°21' W 123°49'5 5.4
2016-May-18 07:33N 49°18' W 123°42'5 5.4
2016-May-18 06:33N 49°15' W 123°35'6 5.6
2016-May-18 05:33N 49°11' W 123°29'5 5.3
2016-May-18 04:33N 49°08' W 123°23'4 3.9
2016-May-18 03:33N 49°07' W 123°17'7 7.1
2016-May-18 02:33N 49°07' W 123°06'6 6.4
2016-May-18 01:33N 49°09' W 122°57'0 0.2
2016-May-18 00:33N 49°09' W 122°57'1 0.7
2016-May-17 23:33N 49°09' W 122°58'8 7.5
2016-May-17 22:33N 49°07' W 123°09'7 7.2
2016-May-17 21:33N 49°06' W 123°20'8 7.9
2016-May-17 20:33N 49°03' W 123°31'8 8.3
2016-May-17 19:33N 48°55' W 123°37'3 3.1
2016-May-17 18:33N 48°53' W 123°38'0 0.0
2016-May-17 17:33N 48°53' W 123°38'0 0.0
2016-May-17 16:10N 48°53' W 123°38'0 0.0
2016-May-17 15:33N 48°53' W 123°38'0 0.0
2016-May-17 14:33N 48°53' W 123°38'0 0.2
2016-May-17 13:33N 48°53' W 123°38'2 1.5
2016-May-17 12:33N 48°54' W 123°36'2 2.3
2016-May-17 11:33N 48°56' W 123°37'2 2.3
2016-May-17 10:33N 48°58' W 123°37'4 3.7
2016-May-17 09:33N 49°01' W 123°35'6 5.9
2016-May-17 08:33N 49°04' W 123°27'6 6.0
2016-May-17 07:33N 49°06' W 123°18'5 5.4
2016-May-17 06:33N 49°07' W 123°10'6 6.4
2016-May-17 05:33N 49°09' W 123°01'2 2.3
2016-May-17 04:33N 49°09' W 122°57'6 5.6
2016-May-17 03:33N 49°07' W 123°05'4 4.2
2016-May-17 02:33N 49°07' W 123°11'0 0.0
2016-May-17 01:33N 49°07' W 123°11'  
Track history (hours):
 
Tides and Currents Weather Stations Pressure Air Temp Water Temp Dewpoint Dewpoint Depression Visibility Wind Speed Wind Dir Waves Ship Positions

Seaspan Champion

Last reported at 2016-May-27 01:33 UTC. Time now 2016-May-28 09:58 UTC.
Position N 49°19' W 123°06'.

Length 24 m; draft 5 m.

Type: Towing. MMSI: 316003661.

Date/timePositionNaut miles runAvg speedWind from/ knotsBaromVisibWave heightAir tempDewpointWater temp
2016-May-27 01:33N 49°19' W 123°06'0 0.0
2016-May-27 00:34N 49°19' W 123°06'1 1.1
2016-May-26 23:33N 49°18' W 123°07'0 0.0
2016-May-26 22:34N 49°18' W 123°07'0 0.0
2016-May-26 21:33N 49°18' W 123°07'0 0.0
2016-May-26 20:33N 49°18' W 123°07'1 1.0
2016-May-26 19:34N 49°19' W 123°08'6 6.2
2016-May-26 18:34N 49°15' W 123°15'2 2.3
2016-May-26 17:33N 49°14' W 123°18'7 6.8
2016-May-26 16:34N 49°07' W 123°19'7 7.1
2016-May-26 15:34N 49°06' W 123°08'8 7.9
2016-May-26 14:34N 49°09' W 122°57'0 0.4
2016-May-26 13:33N 49°09' W 122°58'3 3.2
2016-May-26 12:34N 49°09' W 123°03'5 5.4
2016-May-26 11:34N 49°07' W 123°10'4 4.3
2016-May-26 10:34N 49°07' W 123°17'3 3.5
2016-May-26 09:33N 49°08' W 123°22'6 5.7
2016-May-26 08:33N 49°13' W 123°21'3 3.4
2016-May-26 07:34N 49°17' W 123°21'4 4.3
2016-May-26 06:33N 49°18' W 123°27'5 5.0
2016-May-26 05:33N 49°20' W 123°35'6 6.3
2016-May-26 04:34N 49°23' W 123°43'6 6.4
2016-May-26 03:33N 49°26' W 123°52'6 6.0
2016-May-26 02:33N 49°29' W 124°00'7 6.4
2016-May-26 01:31N 49°33' W 124°07'6 6.3
2016-May-26 00:33N 49°38' W 124°14'7 7.0
2016-May-25 23:34N 49°43' W 124°21'7 7.0
2016-May-25 22:34N 49°47' W 124°30'5 5.4
2016-May-25 21:34N 49°52' W 124°34'0 0.1
2016-May-25 20:33N 49°52' W 124°34'2 2.3
2016-May-25 19:33N 49°50' W 124°33'2 2.3
2016-May-25 18:33N 49°47' W 124°32'4 4.5
2016-May-25 17:33N 49°45' W 124°26'4 4.4
2016-May-25 16:33N 49°43' W 124°20'5 4.6
2016-May-25 15:33N 49°39' W 124°15'6 4.6
2016-May-25 14:19N 49°35' W 124°09'4 4.6
2016-May-25 13:33N 49°32' W 124°06'6 4.6
2016-May-25 12:16N 49°28' W 123°60'13 4.9
2016-May-25 09:33N 49°22' W 123°41'5 4.9
2016-May-25 08:34N 49°20' W 123°34'5 4.9
2016-May-25 07:34N 49°18' W 123°27'5 4.9
2016-May-25 06:33N 49°16' W 123°20'3 2.9
2016-May-25 05:34N 49°14' W 123°18'5 4.8
2016-May-25 04:34N 49°09' W 123°19'3 2.8
2016-May-25 03:33N 49°07' W 123°16'5 4.9
2016-May-25 02:34N 49°06' W 123°08'6 5.8
2016-May-25 01:33N 49°09' W 123°01'2 2.0
2016-May-25 00:33N 49°09' W 122°58'2 1.6
2016-May-24 23:33N 49°10' W 122°55'0 0.0
2016-May-24 22:34N 49°10' W 122°55'0 0.0
2016-May-24 21:33N 49°10' W 122°55'0 0.0
2016-May-24 20:33N 49°10' W 122°55'0 0.0
2016-May-24 19:34N 49°10' W 122°55'0 0.0
2016-May-24 18:34N 49°10' W 122°55'0 0.0
2016-May-24 17:33N 49°10' W 122°55'0 0.0
2016-May-24 16:33N 49°10' W 122°55'0 0.0
2016-May-24 15:33N 49°10' W 122°55'0 0.0
2016-May-24 14:33N 49°10' W 122°55'2 1.9
2016-May-24 13:34N 49°09' W 122°58'4 3.7
2016-May-24 12:33N 49°08' W 123°03'5 4.9
2016-May-24 11:34N 49°07' W 123°11'5 4.9
2016-May-24 10:34N 49°06' W 123°18'3 3.4
2016-May-24 09:33N 49°07' W 123°23'3 3.4
2016-May-24 08:33N 49°11' W 123°23'3 3.1
2016-May-24 07:33N 49°14' W 123°22'3 3.0
2016-May-24 06:33N 49°16' W 123°18'4 4.2
2016-May-24 05:34N 49°17' W 123°24'6 6.4
2016-May-24 04:34N 49°20' W 123°33'7 6.5
2016-May-24 03:29N 49°23' W 123°43'13 5.9
2016-May-24 01:15N 49°29' W 124°01'5 5.8
2016-May-24 00:26N 49°32' W 124°06'12 6.1
2016-May-23 22:32N 49°41' W 124°17'7 6.9
2016-May-23 21:33N 49°45' W 124°25'7 6.9
2016-May-23 20:33N 49°50' W 124°33'2 2.1
2016-May-23 19:33N 49°52' W 124°34'3 2.6
2016-May-23 18:33N 49°49' W 124°33'5 4.6
2016-May-23 17:33N 49°46' W 124°28'5 4.8
2016-May-23 16:33N 49°44' W 124°22'5 5.0
2016-May-23 15:33N 49°40' W 124°16'5 5.4
2016-May-23 14:32N 49°36' W 124°11'5 4.9
2016-May-23 13:28N 49°32' W 124°06'5 5.1
2016-May-23 12:31N 49°28' W 124°01'5 4.7
2016-May-23 11:32N 49°26' W 123°55'5 5.2
2016-May-23 10:29N 49°23' W 123°47'6 5.2
2016-May-23 09:23N 49°21' W 123°39'4 5.3
2016-May-23 08:34N 49°19' W 123°33'5 5.4
2016-May-23 07:34N 49°17' W 123°26'5 5.0
2016-May-23 06:33N 49°15' W 123°18'5 4.5
2016-May-23 05:34N 49°11' W 123°19'5 4.8
2016-May-23 04:33N 49°06' W 123°18'5 5.0
2016-May-23 03:34N 49°07' W 123°10'5 5.3
2016-May-23 02:34N 49°09' W 123°03'4 3.9
2016-May-23 01:34N 49°09' W 122°57'0 0.2
2016-May-23 00:34N 49°09' W 122°57'2 1.7
2016-May-22 23:33N 49°09' W 122°60'6 6.1
2016-May-22 22:33N 49°06' W 123°08'5 5.4
2016-May-22 21:33N 49°07' W 123°16'5 4.6
2016-May-22 20:34N 49°10' W 123°22'6 6.0
2016-May-22 19:33N 49°16' W 123°23'7 7.1
2016-May-22 18:33N 49°15' W 123°34'8 7.6
2016-May-22 17:33N 49°14' W 123°46'6 6.2
2016-May-22 16:33N 49°10' W 123°52'1 1.2
2016-May-22 15:33N 49°09' W 123°51'1 0.9
2016-May-22 14:33N 49°09' W 123°52'0 0.2
2016-May-22 13:33N 49°09' W 123°52'2 1.9
2016-May-22 12:33N 49°11' W 123°53'3 2.7
2016-May-22 11:33N 49°13' W 123°51'2 2.3
2016-May-22 10:32N 49°15' W 123°48'2 1.9
2016-May-22 09:33N 49°16' W 123°46'2 2.0
2016-May-22 08:33N 49°16' W 123°43'3 2.7
2016-May-22 07:33N 49°16' W 123°39'3 2.8
2016-May-22 06:33N 49°15' W 123°34'3 2.5
2016-May-22 05:33N 49°15' W 123°30'2 2.4
2016-May-22 04:33N 49°16' W 123°27'2 2.1
2016-May-22 03:33N 49°16' W 123°24'2 1.7
2016-May-22 02:33N 49°16' W 123°21'2 1.8
2016-May-22 01:34N 49°16' W 123°18'4 4.0
2016-May-22 00:33N 49°12' W 123°18'6 5.7
2016-May-21 23:33N 49°06' W 123°19'6 5.7
2016-May-21 22:33N 49°07' W 123°10'7 7.2
2016-May-21 21:33N 49°09' W 122°60'1 1.3
2016-May-21 20:33N 49°09' W 122°58'0 0.0
2016-May-21 19:33N 49°09' W 122°58'0 0.0
2016-May-21 18:33N 49°09' W 122°58'2 1.7
2016-May-21 17:33N 49°10' W 122°55'0 0.0
2016-May-21 16:33N 49°10' W 122°55'0 0.0
2016-May-21 15:33N 49°10' W 122°55'0 0.0
2016-May-21 14:33N 49°10' W 122°55'0 0.0
2016-May-21 13:33N 49°10' W 122°55'0 0.0
2016-May-21 12:33N 49°10' W 122°55'0 0.0
2016-May-21 11:33N 49°10' W 122°55'0 0.0
2016-May-21 10:33N 49°10' W 122°55'0 0.0
2016-May-21 09:34N 49°10' W 122°55'0 0.0
2016-May-21 08:33N 49°10' W 122°55'0 0.0
2016-May-21 07:33N 49°10' W 122°55'0 0.0
2016-May-21 06:33N 49°10' W 122°55'0 0.0
2016-May-21 05:33N 49°10' W 122°55'0 0.0
2016-May-21 04:33N 49°10' W 122°55'0 0.0
2016-May-21 03:33N 49°10' W 122°55'0 0.0
2016-May-21 02:33N 49°10' W 122°55'0 0.0
2016-May-21 01:33N 49°10' W 122°55'0 0.0
2016-May-21 00:33N 49°10' W 122°55'2 1.8
2016-May-20 23:33N 49°10' W 122°58'5 4.7
2016-May-20 22:33N 49°07' W 123°04'7 6.6
2016-May-20 21:34N 49°08' W 123°14'4 3.8
2016-May-20 20:33N 49°10' W 123°19'7 7.2
2016-May-20 19:33N 49°17' W 123°18'8 7.8
2016-May-20 18:33N 49°25' W 123°18'7 6.6
2016-May-20 17:32N 49°27' W 123°28'4 4.0
2016-May-20 16:33N 49°31' W 123°29'0 0.0
2016-May-20 15:33N 49°31' W 123°29'3 3.0
2016-May-20 14:33N 49°28' W 123°28'4 4.1
2016-May-20 13:33N 49°24' W 123°26'4 4.3
2016-May-20 12:33N 49°20' W 123°27'5 4.8
2016-May-20 11:33N 49°17' W 123°21'4 3.7
2016-May-20 10:33N 49°14' W 123°18'5 5.2
2016-May-20 09:33N 49°09' W 123°18'2 2.4
2016-May-20 08:33N 49°08' W 123°15'7 6.8
2016-May-20 07:33N 49°07' W 123°05'5 5.3
2016-May-20 06:33N 49°09' W 122°57'2 2.2
2016-May-20 05:33N 49°09' W 123°01'4 4.2
2016-May-20 04:33N 49°07' W 123°06'4 3.8
2016-May-20 03:33N 49°07' W 123°12'4 4.3
2016-May-20 02:33N 49°06' W 123°18'6 5.9
2016-May-20 01:33N 49°04' W 123°27'6 6.0
2016-May-20 00:34N 49°01' W 123°35'5 5.4
2016-May-19 23:33N 48°56' W 123°37'4 3.9
2016-May-19 22:33N 48°52' W 123°39'0 0.0
2016-May-19 21:32N 48°52' W 123°39'0 0.0
2016-May-19 20:32N 48°52' W 123°39'0 0.0
2016-May-19 19:33N 48°52' W 123°39'2 1.6
2016-May-19 18:33N 48°53' W 123°37'7 6.9
2016-May-19 17:33N 49°00' W 123°36'6 6.1
2016-May-19 16:33N 49°04' W 123°28'7 7.3
2016-May-19 15:33N 49°06' W 123°18'9 9.0
2016-May-19 14:33N 49°08' W 123°04'5 5.0
2016-May-19 13:33N 49°09' W 122°57'1 1.2
2016-May-19 12:33N 49°10' W 122°55'0 0.0
2016-May-19 11:33N 49°10' W 122°55'0 0.0
2016-May-19 10:33N 49°10' W 122°55'0 0.0
2016-May-19 09:33N 49°10' W 122°55'0 0.0
2016-May-19 08:33N 49°10' W 122°55'0 0.0
2016-May-19 07:33N 49°10' W 122°55'0 0.1
2016-May-19 06:33N 49°10' W 122°56'3 3.2
2016-May-19 05:33N 49°09' W 123°00'1 1.4
2016-May-19 04:33N 49°09' W 123°02'5 5.4
2016-May-19 03:33N 49°07' W 123°10'5 5.2
2016-May-19 02:33N 49°06' W 123°18'7 7.3
2016-May-19 01:33N 49°10' W 123°27'8 7.9
2016-May-19 00:33N 49°15' W 123°37'8 7.9
2016-May-18 23:33N 49°20' W 123°46'8 7.6
2016-May-18 22:33N 49°25' W 123°55'7 7.5
2016-May-18 21:33N 49°30' W 124°03'7 7.4
2016-May-18 20:33N 49°36' W 124°11'8 7.6
2016-May-18 19:33N 49°41' W 124°19'8 7.5
2016-May-18 18:33N 49°46' W 124°28'7 7.0
2016-May-18 17:33N 49°52' W 124°34'0 0.3
2016-May-18 16:33N 49°52' W 124°34'5 4.6
2016-May-18 15:33N 49°47' W 124°32'6 5.6
2016-May-18 14:33N 49°44' W 124°24'6 5.6
2016-May-18 13:33N 49°41' W 124°17'6 5.6
2016-May-18 12:33N 49°37' W 124°12'5 5.4
2016-May-18 11:33N 49°32' W 124°07'5 5.3
2016-May-18 10:33N 49°28' W 124°02'5 5.5
2016-May-18 09:33N 49°24' W 123°56'6 5.6
2016-May-18 08:33N 49°21' W 123°49'5 5.4
2016-May-18 07:33N 49°18' W 123°42'5 5.4
2016-May-18 06:33N 49°15' W 123°35'6 5.6
2016-May-18 05:33N 49°11' W 123°29'5 5.3
2016-May-18 04:33N 49°08' W 123°23'4 3.9
2016-May-18 03:33N 49°07' W 123°17'7 7.1
2016-May-18 02:33N 49°07' W 123°06'6 6.4
2016-May-18 01:33N 49°09' W 122°57'0 0.2
2016-May-18 00:33N 49°09' W 122°57'1 0.7
2016-May-17 23:33N 49°09' W 122°58'8 7.5
2016-May-17 22:33N 49°07' W 123°09'7 7.2
2016-May-17 21:33N 49°06' W 123°20'8 7.9
2016-May-17 20:33N 49°03' W 123°31'8 8.3
2016-May-17 19:33N 48°55' W 123°37'3 3.1
2016-May-17 18:33N 48°53' W 123°38'0 0.0
2016-May-17 17:33N 48°53' W 123°38'0 0.0
2016-May-17 16:10N 48°53' W 123°38'0 0.0
2016-May-17 15:33N 48°53' W 123°38'0 0.0
2016-May-17 14:33N 48°53' W 123°38'0 0.2
2016-May-17 13:33N 48°53' W 123°38'2 1.5
2016-May-17 12:33N 48°54' W 123°36'2 2.3
2016-May-17 11:33N 48°56' W 123°37'2 2.3
2016-May-17 10:33N 48°58' W 123°37'4 3.7
2016-May-17 09:33N 49°01' W 123°35'6 5.9
2016-May-17 08:33N 49°04' W 123°27'6 6.0
2016-May-17 07:33N 49°06' W 123°18'5 5.4
2016-May-17 06:33N 49°07' W 123°10'6 6.4
2016-May-17 05:33N 49°09' W 123°01'2 2.3
2016-May-17 04:33N 49°09' W 122°57'6 5.6
2016-May-17 03:33N 49°07' W 123°05'4 4.2
2016-May-17 02:33N 49°07' W 123°11'0 0.0
2016-May-17 01:33N 49°07' W 123°11'  

Dump ship's entire track history